Terminal Aerodrome Forecast
Issued by NWS Shreveport, LA

Home | Current Version | Previous Version | Text Only | Print | Product List | Glossary On
Versions: 1 2 3 4 5 6 7 8 9 10 11 12 13 14 15 16
000
FTUS44 KSHV 291600 AAA
TAFELD
TAF AMD
KELD 291619Z 2916/3012 02003KT 4SM BR OVC004
     FM291800 05003KT P6SM OVC015
     FM292100 05003KT P6SM OVC035=

USA.gov is the U.S. government's official web portal to all federal, state and local government web resources and services.